Weather Station Data

Station Data Captured at Five Minute Intervals Since Midnight Yesterday


Date Time Temp. RH % Dew Pt. Wind Speed Wind Dir. Peak Wind Wind Chill Pressure Precip. Solar W/m2 ET
12/15/17 10:00p 31.5 74 24.2 0.0 --- 0.0 31.5 30.106 0.00 0 0.000
12/15/17 9:55p 31.5 74 24.2 0.0 --- 0.0 31.5 30.106 0.00 0 0.000
12/15/17 9:50p 31.6 73 23.9 0.0 --- 0.0 31.6 30.108 0.00 0 0.000
12/15/17 9:45p 31.5 73 23.8 0.0 --- 0.0 31.5 30.107 0.00 0 0.000
12/15/17 9:40p 31.5 73 23.8 0.0 --- 0.0 31.5 30.105 0.00 0 0.000
12/15/17 9:35p 31.5 73 23.8 0.0 --- 0.0 31.5 30.107 0.00 0 0.000
12/15/17 9:30p 31.5 73 23.8 0.0 --- 0.0 31.5 30.107 0.00 0 0.000
12/15/17 9:25p 31.6 72 23.6 0.0 --- 0.0 31.6 30.106 0.00 0 0.000
12/15/17 9:20p 31.7 72 23.7 0.0 --- 0.0 31.7 30.108 0.00 0 0.000
12/15/17 9:15p 31.7 72 23.7 0.0 --- 0.0 31.7 30.105 0.00 0 0.000
12/15/17 9:10p 31.7 72 23.7 0.0 --- 0.0 31.7 30.105 0.00 0 0.000
12/15/17 9:05p 31.7 72 23.7 0.0 --- 0.0 31.7 30.104 0.00 0 0.000
12/15/17 9:00p 31.7 72 23.7 0.0 --- 0.0 31.7 30.105 0.00 0 0.000
12/15/17 8:55p 31.7 72 23.7 0.0 --- 0.0 31.7 30.106 0.00 0 0.000
12/15/17 8:50p 31.6 72 23.6 0.0 --- 0.0 31.6 30.107 0.00 0 0.000
12/15/17 8:45p 31.7 72 23.7 0.0 --- 0.0 31.7 30.107 0.00 0 0.000
12/15/17 8:40p 31.7 72 23.7 0.0 --- 0.0 31.7 30.106 0.00 0 0.000
12/15/17 8:35p 31.7 72 23.7 0.0 --- 0.0 31.7 30.105 0.00 0 0.000
12/15/17 8:30p 31.7 72 23.7 0.0 --- 0.0 31.7 30.106 0.00 0 0.000
12/15/17 8:25p 31.7 72 23.7 0.0 --- 0.0 31.7 30.104 0.00 0 0.000
12/15/17 8:20p 31.7 72 23.7 0.0 --- 0.0 31.7 30.105 0.00 0 0.000
12/15/17 8:15p 31.7 72 23.7 0.0 --- 0.0 31.7 30.104 0.00 0 0.000
12/15/17 8:10p 31.7 72 23.7 0.0 --- 0.0 31.7 30.103 0.00 0 0.000
12/15/17 8:05p 31.7 72 23.7 0.0 --- 0.0 31.7 30.100 0.00 0 0.000
12/15/17 8:00p 31.7 72 23.7 0.0 --- 0.0 31.7 30.101 0.00 0 0.000
12/15/17 7:55p 31.7 72 23.7 0.0 --- 0.0 31.7 30.100 0.00 0 0.000
12/15/17 7:50p 31.7 72 23.7 0.0 --- 0.0 31.7 30.101 0.00 0 0.000
12/15/17 7:45p 31.8 72 23.8 0.0 --- 0.0 31.8 30.101 0.00 0 0.000
12/15/17 7:40p 31.7 72 23.7 0.0 --- 0.0 31.7 30.105 0.00 0 0.000
12/15/17 7:35p 31.7 72 23.7 0.0 --- 0.0 31.7 30.104 0.00 0 0.000
12/15/17 7:30p 31.7 72 23.7 0.0 --- 0.0 31.7 30.101 0.00 0 0.000
12/15/17 7:25p 31.7 72 23.7 0.0 --- 0.0 31.7 30.098 0.00 0 0.000
12/15/17 7:20p 31.6 72 23.6 0.0 --- 0.0 31.6 30.095 0.00 0 0.000
12/15/17 7:15p 31.7 72 23.7 0.0 --- 0.0 31.7 30.097 0.00 0 0.000
12/15/17 7:10p 31.7 72 23.7 0.0 --- 0.0 31.7 30.094 0.00 0 0.000
12/15/17 7:05p 31.7 72 23.7 0.0 --- 0.0 31.7 30.094 0.00 0 0.000
12/15/17 7:00p 31.8 72 23.8 0.0 --- 0.0 31.8 30.095 0.00 0 0.001
12/15/17 6:55p 31.8 72 23.8 0.0 --- 0.0 31.8 30.092 0.00 0 0.000
12/15/17 6:50p 31.8 72 23.8 0.0 --- 0.0 31.8 30.093 0.00 0 0.000
12/15/17 6:45p 31.8 71 23.5 0.0 --- 0.0 31.8 30.088 0.00 0 0.000
12/15/17 6:40p 31.7 71 23.4 0.0 --- 0.0 31.7 30.086 0.00 0 0.000
12/15/17 6:35p 31.8 71 23.5 0.0 --- 0.0 31.8 30.086 0.00 0 0.000
12/15/17 6:30p 31.8 71 23.5 0.0 --- 0.0 31.8 30.084 0.00 0 0.000
12/15/17 6:25p 31.8 71 23.5 0.0 --- 0.0 31.8 30.081 0.00 0 0.000
12/15/17 6:20p 31.8 71 23.5 0.0 --- 0.0 31.8 30.079 0.00 0 0.000
12/15/17 6:15p 31.8 71 23.5 0.0 --- 0.0 31.8 30.079 0.00 0 0.000
12/15/17 6:10p 31.8 71 23.5 0.0 --- 0.0 31.8 30.079 0.00 0 0.000
12/15/17 6:05p 31.9 71 23.6 0.0 WSW 1.0 31.9 30.076 0.00 0 0.000
12/15/17 6:00p 31.9 70 23.2 0.0 WSW 1.0 31.9 30.075 0.00 0 0.000
12/15/17 5:55p 31.9 70 23.2 0.0 --- 0.0 31.9 30.074 0.00 0 0.000
12/15/17 5:50p 31.9 70 23.2 0.0 --- 0.0 31.9 30.071 0.00 0 0.000
12/15/17 5:45p 31.9 70 23.2 0.0 W 9.0 31.9 30.069 0.00 0 0.000
12/15/17 5:40p 31.9 70 23.2 0.0 --- 0.0 31.9 30.070 0.00 0 0.000
12/15/17 5:35p 31.9 70 23.2 0.0 W 10.0 31.9 30.066 0.00 0 0.000
12/15/17 5:30p 31.9 70 23.2 0.0 W 10.0 31.9 30.063 0.00 0 0.000
12/15/17 5:25p 31.9 70 23.2 0.0 W 8.0 31.9 30.060 0.00 0 0.000
12/15/17 5:20p 31.9 70 23.2 0.0 WSW 6.0 31.9 30.058 0.00 0 0.000
12/15/17 5:15p 31.9 70 23.2 1.0 W 11.0 31.9 30.055 0.00 0 0.000
12/15/17 5:10p 31.9 70 23.2 0.0 W 8.0 31.9 30.057 0.00 0 0.000
12/15/17 5:05p 32.0 70 23.3 0.0 --- 0.0 32.0 30.050 0.00 0 0.000
12/15/17 5:00p 32.0 70 23.3 0.0 W 4.0 32.0 30.050 0.00 0 0.000
12/15/17 4:55p 32.0 70 23.3 0.0 W 1.0 32.0 30.049 0.00 3 0.000
12/15/17 4:50p 32.0 70 23.3 0.0 --- 0.0 32.0 30.047 0.00 6 0.000
12/15/17 4:45p 32.1 69 23.1 0.0 W 3.0 32.1 30.048 0.00 9 0.000
12/15/17 4:40p 32.1 70 23.4 0.0 W 7.0 32.1 30.044 0.00 12 0.000
12/15/17 4:35p 32.1 70 23.4 0.0 --- 0.0 32.1 30.039 0.00 16 0.000
12/15/17 4:30p 32.1 70 23.4 0.0 --- 0.0 32.1 30.036 0.00 25 0.000
12/15/17 4:25p 32.1 69 23.1 0.0 W 8.0 32.1 30.034 0.00 34 0.000
12/15/17 4:20p 32.1 69 23.1 0.0 W 1.0 32.1 30.033 0.00 35 0.000
12/15/17 4:15p 32.1 69 23.1 0.0 --- 0.0 32.1 30.033 0.00 28 0.000
12/15/17 4:10p 32.1 69 23.1 0.0 --- 0.0 32.1 30.032 0.00 27 0.000
12/15/17 4:05p 32.1 69 23.1 0.0 --- 0.0 32.1 30.028 0.00 29 0.000
12/15/17 4:00p 32.0 69 23.0 0.0 --- 0.0 32.0 30.028 0.00 34 0.001
12/15/17 3:55p 32.0 69 23.0 0.0 SW 7.0 32.0 30.026 0.00 29 0.000
12/15/17 3:50p 31.9 69 22.9 0.0 S 2.0 31.9 30.027 0.00 30 0.000
12/15/17 3:45p 31.9 69 22.9 0.0 --- 0.0 31.9 30.024 0.00 30 0.000
12/15/17 3:40p 31.9 69 22.9 0.0 --- 0.0 31.9 30.023 0.00 34 0.000
12/15/17 3:35p 31.7 69 22.7 0.0 --- 0.0 31.7 30.018 0.00 30 0.000
12/15/17 3:30p 31.7 69 22.7 0.0 --- 0.0 31.7 30.018 0.00 32 0.000
12/15/17 3:25p 31.6 69 22.6 0.0 S 1.0 31.6 30.014 0.00 40 0.000
12/15/17 3:20p 31.6 69 22.6 0.0 --- 0.0 31.6 30.015 0.00 35 0.000
12/15/17 3:15p 31.5 69 22.5 0.0 SE 4.0 31.5 30.013 0.00 36 0.000
12/15/17 3:10p 31.5 69 22.5 0.0 W 1.0 31.5 30.014 0.00 42 0.000
12/15/17 3:05p 31.5 69 22.5 0.0 --- 0.0 31.5 30.015 0.00 51 0.000
12/15/17 3:00p 31.5 70 22.8 0.0 --- 0.0 31.5 30.013 0.00 54 0.001
12/15/17 2:55p 31.5 69 22.5 0.0 --- 0.0 31.5 30.014 0.00 52 0.000
12/15/17 2:50p 31.5 69 22.5 0.0 --- 0.0 31.5 30.016 0.00 53 0.000
12/15/17 2:45p 31.5 69 22.5 0.0 W 4.0 31.5 30.017 0.00 64 0.000
12/15/17 2:40p 31.4 70 22.7 0.0 --- 0.0 31.4 30.015 0.00 70 0.000
12/15/17 2:35p 31.2 70 22.5 0.0 --- 0.0 31.2 30.017 0.00 74 0.000
12/15/17 2:30p 31.1 70 22.5 0.0 SSW 2.0 31.1 30.014 0.00 77 0.000
12/15/17 2:25p 31.1 70 22.5 0.0 --- 0.0 31.1 30.020 0.00 65 0.000
12/15/17 2:20p 31.0 70 22.4 0.0 --- 0.0 31.0 30.027 0.00 45 0.000
12/15/17 2:15p 31.1 70 22.5 0.0 SSW 3.0 31.1 30.026 0.00 51 0.000
12/15/17 2:10p 31.2 70 22.5 0.0 --- 0.0 31.2 30.025 0.00 60 0.000
12/15/17 2:05p 31.2 70 22.5 0.0 --- 0.0 31.2 30.027 0.00 67 0.000
12/15/17 2:00p 31.1 70 22.5 0.0 SSW 1.0 31.1 30.025 0.00 78 0.001
12/15/17 1:55p 31.0 70 22.4 0.0 --- 0.0 31.0 30.024 0.00 74 0.000
12/15/17 1:50p 31.0 70 22.4 0.0 S 2.0 31.0 30.024 0.00 85 0.000
12/15/17 1:45p 30.9 70 22.3 0.0 SSW 9.0 30.9 30.027 0.00 85 0.000
12/15/17 1:40p 31.0 70 22.4 0.0 W 1.0 31.0 30.029 0.00 80 0.000
12/15/17 1:35p 31.1 70 22.5 0.0 S 1.0 31.1 30.025 0.00 87 0.000
12/15/17 1:30p 31.1 70 22.5 0.0 S 3.0 31.1 30.024 0.00 91 0.000
12/15/17 1:25p 31.1 70 22.5 0.0 W 7.0 31.1 30.026 0.00 103 0.000
12/15/17 1:20p 30.8 69 21.8 0.0 WSW 9.0 30.8 30.026 0.00 115 0.000
12/15/17 1:15p 30.8 69 21.8 0.0 SSW 4.0 30.8 30.033 0.00 110 0.000
12/15/17 1:10p 30.8 68 21.5 0.0 SSW 1.0 30.8 30.032 0.00 121 0.000
12/15/17 1:05p 31.0 69 22.0 0.0 --- 0.0 31.0 30.034 0.00 114 0.000
12/15/17 1:00p 31.0 69 22.0 0.0 --- 0.0 31.0 30.034 0.00 132 0.003
12/15/17 12:55p 31.0 69 22.0 0.0 SW 1.0 31.0 30.035 0.00 131 0.000
12/15/17 12:50p 31.1 69 22.1 0.0 S 5.0 31.1 30.035 0.00 155 0.000
12/15/17 12:45p 31.1 69 22.1 0.0 SSW 1.0 31.1 30.036 0.00 152 0.000
12/15/17 12:40p 31.0 70 22.4 0.0 --- 0.0 31.0 30.039 0.00 158 0.000
12/15/17 12:35p 30.8 69 21.8 0.0 --- 0.0 30.8 30.039 0.00 172 0.000
12/15/17 12:30p 30.8 70 22.2 1.0 SSW 9.0 30.8 30.040 0.00 214 0.000
12/15/17 12:25p 30.9 71 22.6 0.0 SSW 3.0 30.9 30.039 0.00 221 0.000
12/15/17 12:20p 30.6 71 22.3 0.0 S 7.0 30.6 30.039 0.00 265 0.000
12/15/17 12:15p 30.4 70 21.8 0.0 SSW 8.0 30.4 30.038 0.00 279 0.000
12/15/17 12:10p 30.4 71 22.1 0.0 SSW 3.0 30.4 30.036 0.00 445 0.000
12/15/17 12:05p 30.3 72 22.4 0.0 SSW 6.0 30.3 30.036 0.00 419 0.000
12/15/17 12:00p 30.1 71 21.8 0.0 SSW 7.0 30.1 30.038 0.00 411 0.004
12/15/17 11:55a 29.8 73 22.2 0.0 S 6.0 29.8 30.043 0.00 409 0.000
12/15/17 11:50a 29.6 73 22.0 0.0 SSW 7.0 29.6 30.046 0.00 406 0.000
12/15/17 11:45a 29.2 74 21.9 1.0 SSE 8.0 29.2 30.050 0.00 400 0.000
12/15/17 11:40a 29.0 76 22.4 0.0 SSW 1.0 29.0 30.055 0.00 392 0.000
12/15/17 11:35a 28.4 78 22.4 0.0 WNW 2.0 28.4 30.062 0.00 391 0.000
12/15/17 11:30a 27.6 80 22.2 0.0 --- 0.0 27.6 30.064 0.00 372 0.000
12/15/17 11:25a 27.1 80 21.7 0.0 --- 0.0 27.1 30.069 0.00 121 0.000
12/15/17 11:20a 26.8 81 21.8 0.0 --- 0.0 26.8 30.074 0.00 171 0.000
12/15/17 11:15a 26.3 81 21.3 0.0 --- 0.0 26.3 30.077 0.00 144 0.000
12/15/17 11:10a 26.0 81 21.0 0.0 --- 0.0 26.0 30.075 0.00 133 0.000
12/15/17 11:05a 25.6 82 20.9 0.0 --- 0.0 25.6 30.076 0.00 110 0.000
12/15/17 11:00a 25.4 82 20.7 0.0 --- 0.0 25.4 30.075 0.00 95 0.001
12/15/17 10:55a 25.3 82 20.6 0.0 --- 0.0 25.3 30.075 0.00 89 0.000
12/15/17 10:50a 25.1 82 20.4 0.0 --- 0.0 25.1 30.072 0.00 83 0.000
12/15/17 10:45a 25.0 82 20.3 0.0 S 1.0 25.0 30.072 0.00 71 0.000
12/15/17 10:40a 24.8 82 20.1 0.0 --- 0.0 24.8 30.072 0.00 67 0.000
12/15/17 10:35a 24.6 82 19.9 0.0 W 1.0 24.6 30.071 0.00 66 0.000
12/15/17 10:30a 24.5 82 19.8 0.0 --- 0.0 24.5 30.074 0.00 67 0.000
12/15/17 10:25a 24.3 82 19.6 0.0 --- 0.0 24.3 30.074 0.00 70 0.000
12/15/17 10:20a 24.2 82 19.5 0.0 --- 0.0 24.2 30.072 0.00 74 0.000
12/15/17 10:15a 24.3 82 19.6 0.0 --- 0.0 24.3 30.069 0.00 78 0.000
12/15/17 10:10a 24.2 82 19.5 0.0 SSW 1.0 24.2 30.064 0.00 85 0.000
12/15/17 10:05a 24.1 82 19.4 0.0 --- 0.0 24.1 30.064 0.00 83 0.000
12/15/17 10:00a 24.0 82 19.3 0.0 SSW 2.0 24.0 30.063 0.00 85 0.001
12/15/17 9:55a 23.8 83 19.4 0.0 --- 1.0 23.8 30.060 0.00 90 0.000
12/15/17 9:50a 23.7 83 19.3 0.0 SSE 1.0 23.7 30.058 0.00 75 0.000
12/15/17 9:45a 23.5 83 19.1 0.0 --- 0.0 23.5 30.057 0.00 78 0.000
12/15/17 9:40a 23.3 83 18.9 0.0 --- 0.0 23.3 30.057 0.00 76 0.000
12/15/17 9:35a 23.1 83 18.7 0.0 --- 0.0 23.1 30.058 0.00 67 0.000
12/15/17 9:30a 23.0 84 18.9 0.0 --- 0.0 23.0 30.057 0.00 60 0.000
12/15/17 9:25a 22.8 84 18.7 0.0 --- 0.0 22.8 30.057 0.00 69 0.000
12/15/17 9:20a 22.6 84 18.5 0.0 --- 0.0 22.6 30.059 0.00 91 0.000
12/15/17 9:15a 22.4 84 18.3 0.0 --- 0.0 22.4 30.058 0.00 87 0.000
12/15/17 9:10a 22.4 84 18.3 0.0 --- 0.0 22.4 30.053 0.00 48 0.000
12/15/17 9:05a 22.3 84 18.2 0.0 --- 0.0 22.3 30.048 0.00 41 0.000
12/15/17 9:00a 22.2 84 18.1 0.0 --- 0.0 22.2 30.044 0.00 30 0.000
12/15/17 8:55a 22.2 84 18.1 0.0 --- 0.0 22.2 30.047 0.00 25 0.000
12/15/17 8:50a 22.2 85 18.4 0.0 --- 0.0 22.2 30.050 0.00 25 0.000
12/15/17 8:45a 22.2 85 18.4 0.0 --- 0.0 22.2 30.049 0.00 27 0.000
12/15/17 8:40a 22.1 85 18.3 0.0 --- 0.0 22.1 30.047 0.00 32 0.000
12/15/17 8:35a 22.0 85 18.2 0.0 --- 0.0 22.0 30.045 0.00 32 0.000
12/15/17 8:30a 21.9 85 18.1 0.0 --- 0.0 21.9 30.045 0.00 30 0.000
12/15/17 8:25a 21.7 85 17.9 0.0 --- 0.0 21.7 30.047 0.00 26 0.000
12/15/17 8:20a 21.6 85 17.8 0.0 --- 0.0 21.6 30.044 0.00 19 0.000
12/15/17 8:15a 21.5 85 17.7 0.0 --- 0.0 21.5 30.044 0.00 16 0.000
12/15/17 8:10a 21.3 85 17.5 0.0 --- 0.0 21.3 30.044 0.00 12 0.000
12/15/17 8:05a 21.2 85 17.4 0.0 --- 0.0 21.2 30.046 0.00 11 0.000
12/15/17 8:00a 21.2 85 17.4 0.0 --- 0.0 21.2 30.042 0.00 6 0.000
12/15/17 7:55a 21.1 85 17.3 0.0 --- 0.0 21.1 30.043 0.00 0 0.000
12/15/17 7:50a 21.1 85 17.3 0.0 --- 0.0 21.1 30.045 0.00 0 0.000
12/15/17 7:45a 21.0 85 17.2 0.0 --- 0.0 21.0 30.047 0.00 0 0.000
12/15/17 7:40a 20.9 85 17.1 0.0 --- 0.0 20.9 30.050 0.00 0 0.000
12/15/17 7:35a 20.9 85 17.1 0.0 --- 0.0 20.9 30.050 0.00 0 0.000
12/15/17 7:30a 20.8 85 17.0 0.0 --- 0.0 20.8 30.049 0.00 0 0.000
12/15/17 7:25a 20.7 86 17.2 0.0 --- 0.0 20.7 30.050 0.00 0 0.000
12/15/17 7:20a 20.6 86 17.1 0.0 --- 0.0 20.6 30.050 0.00 0 0.000
12/15/17 7:15a 20.4 85 16.6 0.0 --- 0.0 20.4 30.049 0.00 0 0.000
12/15/17 7:10a 20.4 85 16.6 0.0 --- 0.0 20.4 30.050 0.00 0 0.000
12/15/17 7:05a 20.4 85 16.6 0.0 --- 0.0 20.4 30.045 0.00 0 0.000
12/15/17 7:00a 20.4 85 16.6 0.0 --- 0.0 20.4 30.044 0.00 0 0.000
12/15/17 6:55a 20.5 85 16.7 0.0 --- 0.0 20.5 30.044 0.00 0 0.000
12/15/17 6:50a 20.6 84 16.5 0.0 --- 0.0 20.6 30.043 0.00 0 0.000
12/15/17 6:45a 20.7 84 16.6 0.0 --- 0.0 20.7 30.042 0.00 0 0.000
12/15/17 6:40a 20.8 84 16.7 0.0 --- 0.0 20.8 30.041 0.00 0 0.000
12/15/17 6:35a 20.8 84 16.7 0.0 --- 0.0 20.8 30.042 0.00 0 0.000
12/15/17 6:30a 20.9 84 16.8 0.0 --- 0.0 20.9 30.042 0.00 0 0.000
12/15/17 6:25a 21.0 83 16.6 0.0 --- 0.0 21.0 30.045 0.00 0 0.000
12/15/17 6:20a 21.1 83 16.7 0.0 --- 0.0 21.1 30.044 0.00 0 0.000
12/15/17 6:15a 21.3 83 16.9 0.0 --- 0.0 21.3 30.039 0.00 0 0.000
12/15/17 6:10a 21.3 83 16.9 0.0 --- 0.0 21.3 30.043 0.00 0 0.000
12/15/17 6:05a 21.4 83 17.0 0.0 --- 0.0 21.4 30.047 0.00 0 0.000
12/15/17 6:00a 21.6 83 17.2 0.0 --- 0.0 21.6 30.048 0.00 0 0.000
12/15/17 5:55a 21.8 82 17.2 0.0 --- 0.0 21.8 30.050 0.00 0 0.000
12/15/17 5:50a 21.8 82 17.2 0.0 --- 0.0 21.8 30.050 0.00 0 0.000
12/15/17 5:45a 21.9 82 17.2 0.0 --- 0.0 21.9 30.050 0.00 0 0.000
12/15/17 5:40a 22.0 82 17.3 0.0 --- 0.0 22.0 30.051 0.00 0 0.000
12/15/17 5:35a 22.1 82 17.4 0.0 --- 0.0 22.1 30.048 0.00 0 0.000
12/15/17 5:30a 22.3 81 17.4 0.0 --- 0.0 22.3 30.048 0.00 0 0.000
12/15/17 5:25a 22.5 81 17.5 0.0 --- 0.0 22.5 30.053 0.00 0 0.000
12/15/17 5:20a 22.6 81 17.6 0.0 --- 0.0 22.6 30.052 0.00 0 0.000
12/15/17 5:15a 22.8 81 17.8 0.0 --- 0.0 22.8 30.053 0.00 0 0.000
12/15/17 5:10a 22.9 81 17.9 0.0 --- 0.0 22.9 30.056 0.00 0 0.000
12/15/17 5:05a 23.0 80 17.7 0.0 --- 0.0 23.0 30.054 0.00 0 0.000
12/15/17 5:00a 23.1 80 17.8 0.0 --- 0.0 23.1 30.054 0.00 0 0.000
12/15/17 4:55a 23.3 80 18.0 0.0 --- 0.0 23.3 30.050 0.00 0 0.000
12/15/17 4:50a 23.3 80 18.0 0.0 --- 0.0 23.3 30.051 0.00 0 0.000
12/15/17 4:45a 23.3 80 18.0 0.0 --- 0.0 23.3 30.050 0.00 0 0.000
12/15/17 4:40a 23.5 80 18.2 0.0 --- 0.0 23.5 30.052 0.00 0 0.000
12/15/17 4:35a 23.6 79 18.0 0.0 --- 0.0 23.6 30.049 0.00 0 0.000
12/15/17 4:30a 23.7 79 18.1 0.0 --- 0.0 23.7 30.047 0.00 0 0.000
12/15/17 4:25a 23.9 79 18.3 0.0 --- 0.0 23.9 30.045 0.00 0 0.000
12/15/17 4:20a 23.9 79 18.3 0.0 --- 0.0 23.9 30.045 0.00 0 0.000
12/15/17 4:15a 24.0 79 18.4 0.0 --- 0.0 24.0 30.047 0.00 0 0.000
12/15/17 4:10a 24.0 78 18.1 0.0 --- 0.0 24.0 30.050 0.00 0 0.000
12/15/17 4:05a 24.0 79 18.4 0.0 --- 0.0 24.0 30.051 0.00 0 0.000
12/15/17 4:00a 23.9 78 18.0 0.0 --- 0.0 23.9 30.055 0.00 0 0.000
12/15/17 3:55a 23.9 78 18.0 0.0 --- 0.0 23.9 30.050 0.00 0 0.000
12/15/17 3:50a 23.7 78 17.8 0.0 --- 0.0 23.7 30.049 0.00 0 0.000
12/15/17 3:45a 23.7 78 17.8 0.0 --- 0.0 23.7 30.051 0.00 0 0.000
12/15/17 3:40a 23.8 78 17.9 0.0 --- 0.0 23.8 30.052 0.00 0 0.000
12/15/17 3:35a 23.8 78 17.9 0.0 --- 0.0 23.8 30.057 0.00 0 0.000
12/15/17 3:30a 24.0 78 18.1 0.0 --- 0.0 24.0 30.059 0.00 0 0.000
12/15/17 3:25a 24.0 78 18.1 0.0 --- 0.0 24.0 30.057 0.00 0 0.000
12/15/17 3:20a 24.2 78 18.3 0.0 --- 0.0 24.2 30.056 0.00 0 0.000
12/15/17 3:15a 24.1 77 17.9 0.0 --- 0.0 24.1 30.056 0.00 0 0.000
12/15/17 3:10a 24.1 77 17.9 0.0 --- 0.0 24.1 30.057 0.00 0 0.000
12/15/17 3:05a 24.1 77 17.9 0.0 --- 0.0 24.1 30.056 0.00 0 0.000
12/15/17 3:00a 24.0 77 17.8 0.0 --- 0.0 24.0 30.058 0.00 0 0.000
12/15/17 2:55a 24.0 78 18.1 0.0 --- 0.0 24.0 30.058 0.00 0 0.000
12/15/17 2:50a 24.0 78 18.1 0.0 --- 0.0 24.0 30.059 0.00 0 0.000
12/15/17 2:45a 23.9 77 17.7 0.0 --- 0.0 23.9 30.061 0.00 0 0.000
12/15/17 2:40a 23.9 77 17.7 0.0 --- 0.0 23.9 30.060 0.00 0 0.000
12/15/17 2:35a 24.0 77 17.8 0.0 --- 0.0 24.0 30.064 0.00 0 0.000
12/15/17 2:30a 24.3 76 17.8 0.0 --- 0.0 24.3 30.063 0.00 0 0.000
12/15/17 2:25a 24.3 76 17.8 0.0 --- 0.0 24.3 30.060 0.00 0 0.000
12/15/17 2:20a 24.4 76 17.9 0.0 --- 0.0 24.4 30.060 0.00 0 0.000
12/15/17 2:15a 24.6 75 17.8 0.0 --- 0.0 24.6 30.063 0.00 0 0.000
12/15/17 2:10a 24.8 75 18.0 0.0 --- 0.0 24.8 30.062 0.00 0 0.000
12/15/17 2:05a 24.9 75 18.1 0.0 --- 0.0 24.9 30.063 0.00 0 0.000
12/15/17 2:00a 24.9 76 18.4 0.0 --- 0.0 24.9 30.061 0.00 0 0.000
12/15/17 1:55a 24.8 76 18.3 0.0 --- 0.0 24.8 30.062 0.00 0 0.000
12/15/17 1:50a 24.6 76 18.1 0.0 --- 0.0 24.6 30.060 0.00 0 0.000
12/15/17 1:45a 24.4 77 18.2 0.0 --- 0.0 24.4 30.063 0.00 0 0.000
12/15/17 1:40a 24.3 77 18.1 0.0 --- 0.0 24.3 30.068 0.00 0 0.000
12/15/17 1:35a 24.3 76 17.8 0.0 --- 0.0 24.3 30.068 0.00 0 0.000
12/15/17 1:30a 24.4 76 17.9 0.0 --- 0.0 24.4 30.067 0.00 0 0.000
12/15/17 1:25a 24.5 76 18.0 0.0 --- 0.0 24.5 30.071 0.00 0 0.000
12/15/17 1:20a 24.7 76 18.2 0.0 --- 0.0 24.7 30.074 0.00 0 0.000
12/15/17 1:15a 25.0 75 18.2 0.0 --- 0.0 25.0 30.075 0.00 0 0.000
12/15/17 1:10a 25.4 75 18.6 0.0 --- 0.0 25.4 30.070 0.00 0 0.000
12/15/17 1:05a 25.7 75 18.9 0.0 --- 0.0 25.7 30.073 0.00 0 0.000
12/15/17 1:00a 25.8 75 19.0 0.0 --- 0.0 25.8 30.076 0.00 0 0.000
12/15/17 12:55a 25.7 76 19.2 0.0 --- 0.0 25.7 30.078 0.00 0 0.000
12/15/17 12:50a 25.6 76 19.1 0.0 --- 0.0 25.6 30.077 0.00 0 0.000
12/15/17 12:45a 25.5 75 18.7 0.0 --- 0.0 25.5 30.081 0.00 0 0.000
12/15/17 12:40a 25.4 75 18.6 0.0 --- 0.0 25.4 30.082 0.00 0 0.000
12/15/17 12:35a 25.3 76 18.8 0.0 --- 0.0 25.3 30.083 0.00 0 0.000
12/15/17 12:30a 25.2 76 18.7 0.0 --- 0.0 25.2 30.084 0.00 0 0.000
12/15/17 12:25a 24.8 77 18.6 0.0 --- 0.0 24.8 30.086 0.00 0 0.000
12/15/17 12:20a 24.6 76 18.1 0.0 --- 0.0 24.6 30.085 0.00 0 0.000
12/15/17 12:15a 24.5 77 18.3 0.0 --- 0.0 24.5 30.085 0.00 0 0.000
12/15/17 12:10a 24.3 76 17.8 0.0 --- 0.0 24.3 30.088 0.00 0 0.000
12/15/17 12:05a 24.4 76 17.9 0.0 --- 0.0 24.4 30.085 0.00 0 0.000
12/15/17 12:00a 24.5 76 18.0 0.0 --- 0.0 24.5 30.084 0.00 0 0.000
12/14/17 11:55p 24.7 76 18.2 0.0 --- 0.0 24.7 30.083 0.00 0 0.000
12/14/17 11:50p 24.7 76 18.2 0.0 --- 0.0 24.7 30.082 0.00 0 0.000
12/14/17 11:45p 24.9 76 18.4 0.0 --- 0.0 24.9 30.079 0.00 0 0.000
12/14/17 11:40p 25.2 75 18.4 0.0 --- 0.0 25.2 30.077 0.00 0 0.000
12/14/17 11:35p 25.2 75 18.4 0.0 --- 0.0 25.2 30.078 0.00 0 0.000
12/14/17 11:30p 25.1 75 18.3 0.0 --- 0.0 25.1 30.082 0.00 0 0.000
12/14/17 11:25p 25.0 76 18.5 0.0 --- 0.0 25.0 30.088 0.00 0 0.000
12/14/17 11:20p 24.8 76 18.3 0.0 --- 0.0 24.8 30.090 0.00 0 0.000
12/14/17 11:15p 24.9 75 18.1 0.0 --- 0.0 24.9 30.093 0.00 0 0.000
12/14/17 11:10p 24.8 75 18.0 0.0 --- 0.0 24.8 30.094 0.00 0 0.000
12/14/17 11:05p 24.8 76 18.3 0.0 --- 0.0 24.8 30.090 0.00 0 0.000
12/14/17 11:00p 24.6 76 18.1 0.0 --- 0.0 24.6 30.089 0.00 0 0.000
12/14/17 10:55p 24.6 76 18.1 0.0 --- 0.0 24.6 30.090 0.00 0 0.000
12/14/17 10:50p 24.7 75 17.9 0.0 --- 0.0 24.7 30.086 0.00 0 0.000
12/14/17 10:45p 24.8 75 18.0 0.0 --- 0.0 24.8 30.089 0.00 0 0.000
12/14/17 10:40p 24.8 75 18.0 0.0 --- 0.0 24.8 30.093 0.00 0 0.000
12/14/17 10:35p 24.8 75 18.0 0.0 --- 0.0 24.8 30.090 0.00 0 0.000
12/14/17 10:30p 24.8 75 18.0 0.0 --- 0.0 24.8 30.090 0.00 0 0.000
12/14/17 10:25p 24.8 75 18.0 0.0 --- 0.0 24.8 30.096 0.00 0 0.000
12/14/17 10:20p 24.7 75 17.9 0.0 --- 0.0 24.7 30.095 0.00 0 0.000
12/14/17 10:15p 24.6 75 17.8 0.0 --- 0.0 24.6 30.097 0.00 0 0.000
12/14/17 10:10p 24.5 75 17.7 0.0 --- 0.0 24.5 30.093 0.00 0 0.000
12/14/17 10:05p 24.5 75 17.7 0.0 --- 0.0 24.5 30.095 0.00 0 0.000
12/14/17 10:00p 24.4 75 17.6 0.0 --- 0.0 24.4 30.095 0.00 0 0.000
12/14/17 9:55p 24.4 75 17.6 0.0 --- 0.0 24.4 30.093 0.00 0 0.000
12/14/17 9:50p 24.4 75 17.6 0.0 --- 0.0 24.4 30.090 0.00 0 0.000
12/14/17 9:45p 24.4 75 17.6 0.0 --- 0.0 24.4 30.085 0.00 0 0.000
12/14/17 9:40p 24.4 75 17.6 0.0 --- 0.0 24.4 30.084 0.00 0 0.000
12/14/17 9:35p 24.4 75 17.6 0.0 --- 0.0 24.4 30.079 0.00 0 0.000
12/14/17 9:30p 24.4 75 17.6 0.0 --- 0.0 24.4 30.076 0.00 0 0.000
12/14/17 9:25p 24.4 74 17.3 0.0 --- 0.0 24.4 30.075 0.00 0 0.000
12/14/17 9:20p 24.4 74 17.3 0.0 --- 0.0 24.4 30.076 0.00 0 0.000
12/14/17 9:15p 24.4 74 17.3 0.0 --- 0.0 24.4 30.079 0.00 0 0.000
12/14/17 9:10p 24.4 74 17.3 0.0 --- 0.0 24.4 30.079 0.00 0 0.000
12/14/17 9:05p 24.5 74 17.4 0.0 --- 0.0 24.5 30.081 0.00 0 0.000
12/14/17 9:00p 24.5 73 17.1 0.0 --- 0.0 24.5 30.084 0.00 0 0.000
12/14/17 8:55p 24.6 73 17.2 0.0 --- 0.0 24.6 30.084 0.00 0 0.000
12/14/17 8:50p 24.7 73 17.3 0.0 --- 0.0 24.7 30.082 0.00 0 0.000
12/14/17 8:45p 24.7 73 17.3 0.0 --- 0.0 24.7 30.082 0.00 0 0.000
12/14/17 8:40p 24.8 73 17.4 0.0 --- 0.0 24.8 30.083 0.00 0 0.000
12/14/17 8:35p 24.9 72 17.1 0.0 --- 0.0 24.9 30.079 0.00 0 0.000
12/14/17 8:30p 24.9 72 17.1 0.0 --- 0.0 24.9 30.078 0.00 0 0.000
12/14/17 8:25p 25.0 72 17.2 0.0 --- 0.0 25.0 30.078 0.00 0 0.000
12/14/17 8:20p 25.0 72 17.2 0.0 --- 0.0 25.0 30.081 0.00 0 0.000
12/14/17 8:15p 25.0 72 17.2 0.0 --- 0.0 25.0 30.081 0.00 0 0.000
12/14/17 8:10p 25.0 72 17.2 0.0 --- 0.0 25.0 30.078 0.00 0 0.000
12/14/17 8:05p 25.0 72 17.2 0.0 --- 0.0 25.0 30.079 0.00 0 0.000
12/14/17 8:00p 25.1 72 17.3 0.0 --- 0.0 25.1 30.078 0.00 0 0.000
12/14/17 7:55p 25.1 72 17.3 0.0 --- 0.0 25.1 30.082 0.00 0 0.000
12/14/17 7:50p 25.1 72 17.3 0.0 --- 0.0 25.1 30.081 0.00 0 0.000
12/14/17 7:45p 25.1 72 17.3 0.0 --- 0.0 25.1 30.085 0.00 0 0.000
12/14/17 7:40p 25.1 72 17.3 0.0 --- 0.0 25.1 30.086 0.00 0 0.000
12/14/17 7:35p 25.1 72 17.3 0.0 --- 0.0 25.1 30.084 0.00 0 0.000
12/14/17 7:30p 25.2 72 17.4 0.0 --- 0.0 25.2 30.081 0.00 0 0.000
12/14/17 7:25p 25.2 72 17.4 0.0 --- 0.0 25.2 30.077 0.00 0 0.000
12/14/17 7:20p 25.2 72 17.4 0.0 --- 0.0 25.2 30.080 0.00 0 0.000
12/14/17 7:15p 25.3 72 17.5 0.0 --- 0.0 25.3 30.077 0.00 0 0.000
12/14/17 7:10p 25.3 72 17.5 0.0 --- 0.0 25.3 30.075 0.00 0 0.000
12/14/17 7:05p 25.3 72 17.5 0.0 --- 0.0 25.3 30.075 0.00 0 0.000
12/14/17 7:00p 25.4 72 17.6 0.0 --- 0.0 25.4 30.076 0.00 0 0.000
12/14/17 6:55p 25.5 71 17.4 0.0 --- 0.0 25.5 30.079 0.00 0 0.000
12/14/17 6:50p 25.6 71 17.5 0.0 --- 0.0 25.6 30.079 0.00 0 0.000
12/14/17 6:45p 25.7 71 17.6 0.0 --- 0.0 25.7 30.075 0.00 0 0.000
12/14/17 6:40p 25.7 71 17.6 0.0 --- 0.0 25.7 30.074 0.00 0 0.000
12/14/17 6:35p 25.7 71 17.6 0.0 --- 0.0 25.7 30.075 0.00 0 0.000
12/14/17 6:30p 25.8 71 17.7 0.0 --- 0.0 25.8 30.075 0.00 0 0.000
12/14/17 6:25p 25.9 71 17.8 0.0 --- 0.0 25.9 30.072 0.00 0 0.000
12/14/17 6:20p 26.0 71 17.9 0.0 --- 0.0 26.0 30.070 0.00 0 0.000
12/14/17 6:15p 26.0 70 17.6 0.0 --- 0.0 26.0 30.070 0.00 0 0.000
12/14/17 6:10p 26.0 70 17.6 0.0 --- 0.0 26.0 30.069 0.00 0 0.000
12/14/17 6:05p 26.1 70 17.6 0.0 --- 0.0 26.1 30.068 0.00 0 0.000
12/14/17 6:00p 26.2 69 17.4 0.0 --- 0.0 26.2 30.067 0.00 0 0.000
12/14/17 5:55p 26.3 69 17.5 0.0 --- 0.0 26.3 30.067 0.00 0 0.000
12/14/17 5:50p 26.4 69 17.6 0.0 --- 0.0 26.4 30.070 0.00 0 0.000
12/14/17 5:45p 26.5 70 18.0 0.0 --- 0.0 26.5 30.069 0.00 0 0.000
12/14/17 5:40p 26.5 70 18.0 0.0 --- 0.0 26.5 30.066 0.00 0 0.000
12/14/17 5:35p 26.5 69 17.7 0.0 --- 0.0 26.5 30.065 0.00 0 0.000
12/14/17 5:30p 26.6 70 18.1 0.0 --- 0.0 26.6 30.061 0.00 0 0.000
12/14/17 5:25p 26.6 69 17.8 0.0 --- 0.0 26.6 30.061 0.00 0 0.000
12/14/17 5:20p 26.7 69 17.9 0.0 --- 0.0 26.7 30.060 0.00 0 0.000
12/14/17 5:15p 26.8 68 17.6 0.0 --- 0.0 26.8 30.058 0.00 0 0.000
12/14/17 5:10p 27.0 68 17.8 0.0 --- 0.0 27.0 30.058 0.00 4 0.000
12/14/17 5:05p 27.2 68 18.0 0.0 --- 0.0 27.2 30.055 0.00 10 0.000
12/14/17 5:00p 27.2 68 18.0 0.0 --- 0.0 27.2 30.055 0.00 16 0.001
12/14/17 4:55p 27.1 68 17.9 0.0 --- 0.0 27.1 30.052 0.00 21 0.000
12/14/17 4:50p 27.1 68 17.9 0.0 --- 0.0 27.1 30.052 0.00 26 0.000
12/14/17 4:45p 27.1 68 17.9 0.0 --- 0.0 27.1 30.052 0.00 26 0.000
12/14/17 4:40p 27.1 68 17.9 0.0 --- 0.0 27.1 30.053 0.00 25 0.000
12/14/17 4:35p 27.2 68 18.0 0.0 --- 0.0 27.2 30.049 0.00 28 0.000
12/14/17 4:30p 27.3 68 18.1 0.0 --- 0.0 27.3 30.044 0.00 40 0.000
12/14/17 4:25p 27.6 68 18.4 0.0 --- 0.0 27.6 30.040 0.00 40 0.000
12/14/17 4:20p 27.6 68 18.4 0.0 N 1.0 27.6 30.042 0.00 50 0.000
12/14/17 4:15p 27.5 68 18.3 0.0 --- 0.0 27.5 30.037 0.00 80 0.000
12/14/17 4:10p 27.5 67 18.0 0.0 --- 0.0 27.5 30.036 0.00 72 0.000
12/14/17 4:05p 27.6 68 18.4 0.0 --- 0.0 27.6 30.039 0.00 83 0.000
12/14/17 4:00p 27.7 68 18.5 0.0 --- 0.0 27.7 30.036 0.00 66 0.002
12/14/17 3:55p 27.6 68 18.4 0.0 --- 0.0 27.6 30.035 0.00 83 0.000
12/14/17 3:50p 27.6 68 18.4 0.0 --- 0.0 27.6 30.036 0.00 82 0.000
12/14/17 3:45p 27.6 67 18.1 0.0 --- 0.0 27.6 30.031 0.00 97 0.000
12/14/17 3:40p 28.0 65 17.7 0.0 NW 1.0 28.0 30.033 0.00 78 0.000
12/14/17 3:35p 28.6 65 18.3 0.0 --- 0.0 28.6 30.027 0.00 121 0.000
12/14/17 3:30p 28.6 67 19.0 0.0 --- 0.0 28.6 30.028 0.00 191 0.000
12/14/17 3:25p 28.3 66 18.4 0.0 --- 0.0 28.3 30.026 0.00 166 0.000
12/14/17 3:20p 28.5 66 18.6 0.0 --- 0.0 28.5 30.027 0.00 116 0.000
12/14/17 3:15p 28.5 66 18.6 0.0 --- 0.0 28.5 30.027 0.00 191 0.000
12/14/17 3:10p 28.4 66 18.5 0.0 --- 0.0 28.4 30.031 0.00 195 0.000
12/14/17 3:05p 28.4 66 18.5 0.0 --- 0.0 28.4 30.030 0.00 194 0.000
12/14/17 3:00p 28.7 66 18.8 0.0 --- 0.0 28.7 30.033 0.00 238 0.003
12/14/17 2:55p 28.7 67 19.1 0.0 --- 0.0 28.7 30.032 0.00 219 0.000
12/14/17 2:50p 28.3 67 18.7 0.0 --- 0.0 28.3 30.033 0.00 265 0.000
12/14/17 2:45p 28.1 66 18.2 0.0 --- 0.0 28.1 30.031 0.00 310 0.000
12/14/17 2:40p 28.5 67 18.9 0.0 --- 0.0 28.5 30.030 0.00 322 0.000
12/14/17 2:35p 28.7 67 19.1 0.0 --- 0.0 28.7 30.028 0.00 348 0.000
12/14/17 2:30p 28.3 67 18.7 0.0 N 1.0 28.3 30.024 0.00 342 0.000
12/14/17 2:25p 28.1 68 18.9 0.0 --- 0.0 28.1 30.025 0.00 366 0.000
12/14/17 2:20p 27.6 68 18.4 0.0 --- 0.0 27.6 30.026 0.00 128 0.000
12/14/17 2:15p 27.7 68 18.5 0.0 --- 0.0 27.7 30.026 0.00 118 0.000
12/14/17 2:10p 27.6 67 18.1 0.0 NNW 1.0 27.6 30.024 0.00 198 0.000
12/14/17 2:05p 27.7 67 18.2 0.0 N 4.0 27.7 30.026 0.00 217 0.000
12/14/17 2:00p 28.2 66 18.3 0.0 --- 0.0 28.2 30.024 0.00 181 0.003
12/14/17 1:55p 28.8 66 18.9 0.0 --- 0.0 28.8 30.028 0.00 287 0.000
12/14/17 1:50p 28.9 66 19.0 0.0 --- 0.0 28.9 30.028 0.00 239 0.000
12/14/17 1:45p 29.2 66 19.2 0.0 --- 0.0 29.2 30.030 0.00 251 0.000
12/14/17 1:40p 28.8 67 19.2 0.0 --- 0.0 28.8 30.029 0.00 364 0.000
12/14/17 1:35p 28.6 67 19.0 0.0 --- 0.0 28.6 30.030 0.00 316 0.000
12/14/17 1:30p 28.2 68 19.0 0.0 --- 0.0 28.2 30.028 0.00 244 0.000
12/14/17 1:25p 28.5 66 18.6 0.0 NNW 1.0 28.5 30.029 0.00 208 0.000
12/14/17 1:20p 28.7 67 19.1 0.0 --- 0.0 28.7 30.025 0.00 228 0.000
12/14/17 1:15p 29.1 66 19.2 0.0 --- 0.0 29.1 30.026 0.00 198 0.000
12/14/17 1:10p 29.4 66 19.4 0.0 --- 0.0 29.4 30.025 0.00 310 0.000
12/14/17 1:05p 29.2 67 19.6 0.0 --- 0.0 29.2 30.023 0.00 286 0.000
12/14/17 1:00p 28.9 67 19.3 0.0 --- 0.0 28.9 30.025 0.00 230 0.005
12/14/17 12:55p 29.0 67 19.4 0.0 NNW 1.0 29.0 30.029 0.00 442 0.000
12/14/17 12:50p 28.5 68 19.3 0.0 --- 0.0 28.5 30.029 0.00 302 0.000
12/14/17 12:45p 28.5 67 18.9 0.0 --- 0.0 28.5 30.031 0.00 254 0.000
12/14/17 12:40p 28.9 67 19.3 0.0 N 1.0 28.9 30.032 0.00 533 0.000
12/14/17 12:35p 29.0 68 19.8 0.0 --- 0.0 29.0 30.029 0.00 522 0.000
12/14/17 12:30p 28.9 68 19.7 0.0 WNW 1.0 28.9 30.030 0.00 473 0.000
12/14/17 12:25p 28.5 67 18.9 0.0 --- 0.0 28.5 30.028 0.00 415 0.000
12/14/17 12:20p 28.8 67 19.2 0.0 N 1.0 28.8 30.028 0.00 216 0.000
12/14/17 12:15p 29.7 65 19.4 0.0 NNW 1.0 29.7 30.025 0.00 266 0.000
12/14/17 12:10p 30.0 68 20.7 0.0 --- 0.0 30.0 30.022 0.00 519 0.000
12/14/17 12:05p 29.0 68 19.8 0.0 --- 0.0 29.0 30.023 0.00 460 0.000
12/14/17 12:00p 28.7 69 19.8 0.0 --- 0.0 28.7 30.024 0.00 569 0.004
12/14/17 11:55a 28.1 69 19.2 0.0 NW 1.0 28.1 30.022 0.00 462 0.000
12/14/17 11:50a 27.6 69 18.8 0.0 --- 0.0 27.6 30.025 0.00 353 0.000
12/14/17 11:45a 27.8 70 19.3 0.0 --- 0.0 27.8 30.022 0.00 359 0.000
12/14/17 11:40a 27.5 69 18.7 0.0 --- 0.0 27.5 30.021 0.00 330 0.000
12/14/17 11:35a 27.8 68 18.6 0.0 --- 0.0 27.8 30.021 0.00 195 0.000
12/14/17 11:30a 27.9 69 19.0 0.0 --- 0.0 27.9 30.021 0.00 422 0.000
12/14/17 11:25a 27.7 69 18.8 0.0 NW 1.0 27.7 30.014 0.00 336 0.000
12/14/17 11:20a 27.8 69 18.9 0.0 --- 0.0 27.8 30.019 0.00 260 0.000
12/14/17 11:15a 27.8 69 18.9 0.0 --- 0.0 27.8 30.018 0.00 371 0.000
12/14/17 11:10a 27.6 69 18.8 0.0 --- 0.0 27.6 30.018 0.00 382 0.000
12/14/17 11:05a 27.6 69 18.8 0.0 --- 0.0 27.6 30.021 0.00 385 0.000
12/14/17 11:00a 27.4 71 19.2 0.0 NE 1.0 27.4 30.020 0.00 281 0.002
12/14/17 10:55a 27.2 71 19.0 0.0 --- 0.0 27.2 30.016 0.00 276 0.000
12/14/17 10:50a 26.9 72 19.1 0.0 ENE 1.0 26.9 30.016 0.00 294 0.000
12/14/17 10:45a 26.6 72 18.8 0.0 --- 0.0 26.6 30.016 0.00 212 0.000
12/14/17 10:40a 26.4 72 18.6 0.0 --- 0.0 26.4 30.015 0.00 149 0.000
12/14/17 10:35a 26.5 72 18.7 0.0 --- 0.0 26.5 30.009 0.00 132 0.000
12/14/17 10:30a 26.6 72 18.8 0.0 --- 0.0 26.6 30.009 0.00 130 0.000
12/14/17 10:25a 26.5 72 18.7 0.0 --- 0.0 26.5 30.006 0.00 123 0.000
12/14/17 10:20a 26.3 72 18.5 0.0 --- 0.0 26.3 30.007 0.00 145 0.000
12/14/17 10:15a 26.2 72 18.4 0.0 --- 0.0 26.2 30.006 0.00 132 0.000
12/14/17 10:10a 26.4 72 18.6 0.0 NNW 1.0 26.4 30.000 0.00 104 0.000
12/14/17 10:05a 26.8 71 18.7 0.0 --- 0.0 26.8 29.996 0.00 92 0.000
12/14/17 10:00a 26.7 72 18.9 0.0 --- 0.0 26.7 29.990 0.00 90 0.001
12/14/17 9:55a 26.3 73 18.8 0.0 --- 0.0 26.3 29.986 0.00 88 0.000
12/14/17 9:50a 26.0 73 18.5 0.0 --- 0.0 26.0 29.988 0.00 72 0.000
12/14/17 9:45a 26.0 72 18.2 0.0 NW 1.0 26.0 29.987 0.00 68 0.000
12/14/17 9:40a 26.1 72 18.3 0.0 NW 8.0 26.1 29.983 0.00 90 0.000
12/14/17 9:35a 26.5 72 18.7 0.0 N 4.0 26.5 29.980 0.00 99 0.000
12/14/17 9:30a 26.3 73 18.8 0.0 N 1.0 26.3 29.978 0.00 102 0.000
12/14/17 9:25a 26.2 73 18.7 0.0 --- 0.0 26.2 29.977 0.00 75 0.000
12/14/17 9:20a 26.0 73 18.5 0.0 --- 0.0 26.0 29.977 0.00 75 0.000
12/14/17 9:15a 25.7 74 18.6 0.0 --- 0.0 25.7 29.976 0.00 74 0.000
12/14/17 9:10a 25.6 74 18.5 0.0 --- 0.0 25.6 29.978 0.00 76 0.000
12/14/17 9:05a 25.4 74 18.3 0.0 --- 0.0 25.4 29.974 0.00 58 0.000
12/14/17 9:00a 25.4 74 18.3 0.0 --- 0.0 25.4 29.972 0.00 49 0.000
12/14/17 8:55a 25.4 74 18.3 0.0 --- 0.0 25.4 29.971 0.00 74 0.000
12/14/17 8:50a 25.3 75 18.5 0.0 NNW 1.0 25.3 29.965 0.00 44 0.000
12/14/17 8:45a 25.2 75 18.4 0.0 --- 0.0 25.2 29.964 0.00 58 0.000
12/14/17 8:40a 25.0 75 18.2 0.0 --- 0.0 25.0 29.966 0.00 58 0.000
12/14/17 8:35a 24.8 75 18.0 0.0 --- 0.0 24.8 29.961 0.00 45 0.000
12/14/17 8:30a 24.8 75 18.0 0.0 --- 0.0 24.8 29.956 0.00 27 0.000
12/14/17 8:25a 24.8 75 18.0 0.0 NNE 1.0 24.8 29.953 0.00 23 0.000
12/14/17 8:20a 24.8 75 18.0 0.0 --- 0.0 24.8 29.947 0.00 19 0.000
12/14/17 8:15a 24.8 75 18.0 0.0 NNW 4.0 24.8 29.945 0.00 15 0.000
12/14/17 8:10a 24.9 75 18.1 0.0 --- 0.0 24.9 29.939 0.00 12 0.000
12/14/17 8:05a 25.1 74 18.0 0.0 --- 0.0 25.1 29.939 0.00 10 0.000
12/14/17 8:00a 25.3 74 18.2 0.0 --- 0.0 25.3 29.937 0.00 6 0.000
12/14/17 7:55a 25.6 73 18.1 0.0 --- 0.0 25.6 29.934 0.00 2 0.000
12/14/17 7:50a 26.0 73 18.5 0.0 --- 0.0 26.0 29.934 0.00 0 0.000
12/14/17 7:45a 26.1 72 18.3 0.0 --- 0.0 26.1 29.929 0.00 0 0.000
12/14/17 7:40a 26.3 72 18.5 0.0 --- 0.0 26.3 29.927 0.00 0 0.000
12/14/17 7:35a 26.6 72 18.8 0.0 NNW 3.0 26.6 29.924 0.00 0 0.000
12/14/17 7:30a 26.8 71 18.7 0.0 NW 6.0 26.8 29.922 0.00 0 0.000
12/14/17 7:25a 27.1 70 18.6 0.0 NW 1.0 27.1 29.922 0.00 0 0.000
12/14/17 7:20a 27.3 69 18.5 0.0 --- 0.0 27.3 29.919 0.00 0 0.000
12/14/17 7:15a 27.4 68 18.2 0.0 --- 0.0 27.4 29.915 0.00 0 0.000
12/14/17 7:10a 27.5 67 18.0 0.0 WNW 3.0 27.5 29.910 0.00 0 0.000
12/14/17 7:05a 27.6 67 18.1 0.0 WNW 1.0 27.6 29.906 0.00 0 0.000
12/14/17 7:00a 27.8 67 18.3 1.0 WNW 12.0 27.8 29.905 0.00 0 0.001
12/14/17 6:55a 28.0 66 18.1 1.0 WNW 12.0 28.0 29.904 0.00 0 0.000
12/14/17 6:50a 28.3 67 18.7 0.0 NNW 8.0 28.3 29.901 0.00 0 0.000
12/14/17 6:45a 28.6 67 19.0 1.0 NW 8.0 28.6 29.901 0.00 0 0.000
12/14/17 6:40a 28.9 67 19.3 1.0 NNW 16.0 28.9 29.897 0.00 0 0.000
12/14/17 6:35a 29.5 67 19.9 1.0 NNW 10.0 29.5 29.893 0.00 0 0.000
12/14/17 6:30a 30.1 70 21.5 1.0 N 13.0 30.1 29.890 0.00 0 0.000
12/14/17 6:25a 30.3 72 22.4 0.0 --- 0.0 30.3 29.880 0.00 0 0.000
12/14/17 6:20a 30.3 72 22.4 0.0 --- 0.0 30.3 29.877 0.00 0 0.000
12/14/17 6:15a 30.3 72 22.4 0.0 --- 0.0 30.3 29.872 0.00 0 0.000
12/14/17 6:10a 30.3 72 22.4 0.0 --- 0.0 30.3 29.868 0.00 0 0.000
12/14/17 6:05a 30.3 72 22.4 0.0 --- 0.0 30.3 29.860 0.00 0 0.000
12/14/17 6:00a 30.2 72 22.3 0.0 --- 0.0 30.2 29.857 0.00 0 0.001
12/14/17 5:55a 30.2 72 22.3 0.0 --- 0.0 30.2 29.853 0.00 0 0.000
12/14/17 5:50a 30.2 72 22.3 0.0 --- 0.0 30.2 29.851 0.00 0 0.000
12/14/17 5:45a 30.2 72 22.3 0.0 --- 0.0 30.2 29.849 0.00 0 0.000
12/14/17 5:40a 30.3 71 22.0 0.0 WNW 7.0 30.3 29.848 0.00 0 0.000
12/14/17 5:35a 30.3 71 22.0 0.0 WNW 7.0 30.3 29.842 0.00 0 0.000
12/14/17 5:30a 30.3 71 22.0 0.0 NNE 4.0 30.3 29.843 0.00 0 0.000
12/14/17 5:25a 30.3 71 22.0 0.0 WNW 4.0 30.3 29.839 0.00 0 0.000
12/14/17 5:20a 30.3 71 22.0 2.0 NW 12.0 29.1 29.831 0.00 0 0.000
12/14/17 5:15a 30.3 71 22.0 0.0 WNW 8.0 30.3 29.830 0.00 0 0.000
12/14/17 5:10a 30.3 71 22.0 1.0 WNW 12.0 30.3 29.822 0.00 0 0.000
12/14/17 5:05a 30.4 71 22.1 1.0 NW 11.0 30.4 29.817 0.00 0 0.000
12/14/17 5:00a 30.4 71 22.1 1.0 WNW 11.0 30.4 29.817 0.00 0 0.001
12/14/17 4:55a 30.5 71 22.2 2.0 WNW 16.0 29.3 29.817 0.00 0 0.000
12/14/17 4:50a 30.5 70 21.9 2.0 WNW 13.0 29.3 29.814 0.00 0 0.000
12/14/17 4:45a 30.6 71 22.3 2.0 WNW 13.0 29.4 29.814 0.00 0 0.000
12/14/17 4:40a 30.6 71 22.3 3.0 WNW 16.0 27.7 29.811 0.00 0 0.000
12/14/17 4:35a 30.7 70 22.1 2.0 WNW 16.0 29.5 29.808 0.00 0 0.000
12/14/17 4:30a 30.8 70 22.2 4.0 WNW 15.0 26.7 29.805 0.00 0 0.000
12/14/17 4:25a 31.0 70 22.4 5.0 WNW 16.0 25.9 29.800 0.00 0 0.000
12/14/17 4:20a 31.1 70 22.5 5.0 WNW 19.0 26.0 29.800 0.00 0 0.000
12/14/17 4:15a 31.2 69 22.2 8.0 WNW 22.0 23.9 29.798 0.00 0 0.000
12/14/17 4:10a 31.3 69 22.3 5.0 NW 20.0 26.3 29.795 0.00 0 0.000
12/14/17 4:05a 31.4 69 22.4 3.0 WNW 16.0 28.6 29.794 0.00 0 0.000
12/14/17 4:00a 31.5 70 22.8 4.0 WNW 17.0 27.5 29.790 0.00 0 0.001
12/14/17 3:55a 31.6 71 23.3 3.0 NW 14.0 28.9 29.789 0.00 0 0.000
12/14/17 3:50a 31.6 71 23.3 1.0 WNW 12.0 31.6 29.785 0.00 0 0.000
12/14/17 3:45a 31.7 71 23.4 2.0 WNW 12.0 30.6 29.781 0.00 0 0.000
12/14/17 3:40a 31.7 71 23.4 1.0 NW 14.0 31.7 29.780 0.00 0 0.000
12/14/17 3:35a 31.7 71 23.4 1.0 WNW 11.0 31.7 29.779 0.00 0 0.000
12/14/17 3:30a 31.8 71 23.5 3.0 WNW 13.0 29.1 29.775 0.00 0 0.000
12/14/17 3:25a 31.8 71 23.5 4.0 WNW 18.0 27.8 29.770 0.00 0 0.000
12/14/17 3:20a 31.9 71 23.6 6.0 WNW 16.0 26.1 29.767 0.00 0 0.000
12/14/17 3:15a 32.0 71 23.7 7.0 WNW 18.0 25.5 29.764 0.00 0 0.000
12/14/17 3:10a 32.1 71 23.8 4.0 WNW 15.0 28.2 29.761 0.00 0 0.000
12/14/17 3:05a 32.1 71 23.8 6.0 WNW 24.0 26.3 29.757 0.00 0 0.000
12/14/17 3:00a 32.2 72 24.2 6.0 WNW 21.0 26.5 29.756 0.00 0 0.001
12/14/17 2:55a 32.4 72 24.4 3.0 WNW 16.0 29.8 29.751 0.00 0 0.000
12/14/17 2:50a 32.7 72 24.7 7.0 WNW 16.0 26.3 29.740 0.00 0 0.000
12/14/17 2:45a 33.0 72 25.0 7.0 WNW 18.0 26.7 29.736 0.00 0 0.000
12/14/17 2:40a 33.2 71 24.8 11.0 WNW 20.0 24.7 29.734 0.00 0 0.000
12/14/17 2:35a 33.4 71 25.0 5.0 WNW 18.0 28.7 29.732 0.00 0 0.000
12/14/17 2:30a 33.6 71 25.2 11.0 WNW 23.0 25.2 29.726 0.00 0 0.000
12/14/17 2:25a 33.8 71 25.4 10.0 WNW 25.0 26.0 29.719 0.00 0 0.000
12/14/17 2:20a 34.1 71 25.7 10.0 WNW 20.0 26.3 29.716 0.00 0 0.000
12/14/17 2:15a 34.7 71 26.3 9.0 WNW 24.0 27.6 29.713 0.00 0 0.000
12/14/17 2:10a 35.3 71 26.8 4.0 WNW 17.0 31.9 29.707 0.00 0 0.000
12/14/17 2:05a 35.6 71 27.1 7.0 WNW 20.0 29.8 29.699 0.00 0 0.000
12/14/17 2:00a 35.8 70 27.0 8.0 WNW 22.0 29.5 29.695 0.00 0 0.001
12/14/17 1:55a 36.0 70 27.2 9.0 W 20.0 29.2 29.690 0.00 0 0.000
12/14/17 1:50a 36.4 70 27.5 9.0 W 20.0 29.7 29.686 0.00 0 0.000
12/14/17 1:45a 36.6 69 27.4 6.0 W 18.0 31.7 29.679 0.00 0 0.000
12/14/17 1:40a 36.8 69 27.6 8.0 W 23.0 30.7 29.674 0.00 0 0.000
12/14/17 1:35a 36.9 70 28.0 5.0 W 16.0 32.8 29.663 0.00 0 0.000
12/14/17 1:30a 36.9 71 28.4 9.0 W 21.0 30.3 29.657 0.00 0 0.000
12/14/17 1:25a 37.0 71 28.5 5.0 W 15.0 32.9 29.655 0.00 0 0.000
12/14/17 1:20a 37.0 71 28.5 7.0 WNW 17.0 31.5 29.652 0.00 0 0.000
12/14/17 1:15a 37.1 71 28.6 6.0 W 18.0 32.3 29.650 0.00 0 0.000
12/14/17 1:10a 37.1 71 28.6 8.0 W 21.0 31.1 29.646 0.00 0 0.000
12/14/17 1:05a 37.2 71 28.7 6.0 WNW 21.0 32.4 29.646 0.00 0 0.000
12/14/17 1:00a 37.3 70 28.4 8.0 WNW 18.0 31.3 29.643 0.00 0 0.002
12/14/17 12:55a 37.4 70 28.5 6.0 W 16.0 32.7 29.642 0.00 0 0.000
12/14/17 12:50a 37.5 70 28.6 13.0 WNW 28.0 29.3 29.637 0.00 0 0.000
12/14/17 12:45a 37.7 70 28.8 9.0 W 29.0 31.3 29.637 0.00 0 0.000
12/14/17 12:40a 37.8 70 28.9 11.0 W 29.0 30.5 29.632 0.00 0 0.000
12/14/17 12:35a 38.0 70 29.1 8.0 W 22.0 32.2 29.629 0.00 0 0.000
12/14/17 12:30a 38.1 71 29.5 8.0 W 27.0 32.3 29.625 0.00 0 0.000
12/14/17 12:25a 38.3 71 29.7 13.0 WNW 26.0 30.3 29.621 0.00 0 0.000
12/14/17 12:20a 38.7 71 30.1 8.0 WNW 25.0 33.0 29.620 0.00 0 0.000
12/14/17 12:15a 39.1 70 30.1 7.0 WNW 22.0 34.1 29.617 0.00 0 0.000
12/14/17 12:10a 39.4 69 30.1 9.0 WNW 19.0 33.4 29.611 0.00 0 0.000
12/14/17 12:05a 39.4 69 30.1 4.0 W 15.0 36.6 29.609 0.00 0 0.000

11,703 Page Views